sensor_id;sensor_type;location;lat;lon;timestamp;pressure;altitude;pressure_sealevel;temperature;humidity
46464;BME280;32161;48.148;-1.554;2022-09-09T00:01:50;100529.44;;;17.41;89.11
46464;BME280;32161;48.148;-1.554;2022-09-09T00:04:28;100514.34;;;17.33;89.45
46464;BME280;32161;48.148;-1.554;2022-09-09T00:07:03;100520.44;;;17.30;89.63
46464;BME280;32161;48.148;-1.554;2022-09-09T00:09:39;100520.66;;;17.39;89.58
46464;BME280;32161;48.148;-1.554;2022-09-09T00:12:14;100514.59;;;17.42;89.18
46464;BME280;32161;48.148;-1.554;2022-09-09T00:14:46;100520.91;;;17.42;89.13
46464;BME280;32161;48.148;-1.554;2022-09-09T00:17:30;100516.84;;;17.35;89.07
46464;BME280;32161;48.148;-1.554;2022-09-09T00:20:05;100514.34;;;17.38;89.03
46464;BME280;32161;48.148;-1.554;2022-09-09T00:22:44;100517.38;;;17.31;89.31
46464;BME280;32161;48.148;-1.554;2022-09-09T00:25:19;100510.81;;;17.27;89.63
46464;BME280;32161;48.148;-1.554;2022-09-09T00:27:51;100510.25;;;17.30;89.79
46464;BME280;32161;48.148;-1.554;2022-09-09T00:30:21;100506.94;;;17.28;89.72
46464;BME280;32161;48.148;-1.554;2022-09-09T00:32:54;100513.00;;;17.25;89.61
46464;BME280;32161;48.148;-1.554;2022-09-09T00:35:29;100510.00;;;17.22;90.03
46464;BME280;32161;48.148;-1.554;2022-09-09T00:38:05;100508.09;;;17.22;89.78
46464;BME280;32161;48.148;-1.554;2022-09-09T00:40:45;100500.94;;;17.26;90.06
46464;BME280;32161;48.148;-1.554;2022-09-09T00:43:28;100500.88;;;17.37;89.31
46464;BME280;32161;48.148;-1.554;2022-09-09T00:49:23;100505.28;;;17.32;89.57
46464;BME280;32161;48.148;-1.554;2022-09-09T00:52:08;100502.88;;;17.21;89.68
46464;BME280;32161;48.148;-1.554;2022-09-09T00:54:47;100505.34;;;17.22;89.88
46464;BME280;32161;48.148;-1.554;2022-09-09T00:57:26;100492.44;;;17.23;89.64
46464;BME280;32161;48.148;-1.554;2022-09-09T01:00:16;100487.78;;;17.18;89.78
46464;BME280;32161;48.148;-1.554;2022-09-09T01:02:56;100491.03;;;17.25;89.63
46464;BME280;32161;48.148;-1.554;2022-09-09T01:05:36;100485.28;;;17.17;89.60
46464;BME280;32161;48.148;-1.554;2022-09-09T01:08:22;100487.22;;;17.16;89.89
46464;BME280;32161;48.148;-1.554;2022-09-09T01:10:59;100488.91;;;17.12;89.76
46464;BME280;32161;48.148;-1.554;2022-09-09T01:13:30;100474.59;;;17.10;90.10
46464;BME280;32161;48.148;-1.554;2022-09-09T01:16:02;100488.34;;;17.05;90.11
46464;BME280;32161;48.148;-1.554;2022-09-09T01:18:35;100484.50;;;17.06;90.35
46464;BME280;32161;48.148;-1.554;2022-09-09T01:21:16;100491.16;;;16.90;90.82
46464;BME280;32161;48.148;-1.554;2022-09-09T01:24:16;100492.78;;;16.91;90.93
46464;BME280;32161;48.148;-1.554;2022-09-09T01:26:50;100493.91;;;16.90;91.16
46464;BME280;32161;48.148;-1.554;2022-09-09T01:29:20;100491.13;;;16.95;90.89
46464;BME280;32161;48.148;-1.554;2022-09-09T01:31:55;100495.81;;;16.89;90.80
46464;BME280;32161;48.148;-1.554;2022-09-09T01:34:26;100492.81;;;16.86;90.94
46464;BME280;32161;48.148;-1.554;2022-09-09T01:37:02;100489.78;;;16.82;91.68
46464;BME280;32161;48.148;-1.554;2022-09-09T01:39:32;100497.19;;;16.87;91.57
46464;BME280;32161;48.148;-1.554;2022-09-09T01:42:03;100487.28;;;16.91;91.29
46464;BME280;32161;48.148;-1.554;2022-09-09T01:44:31;100498.00;;;16.97;90.95
46464;BME280;32161;48.148;-1.554;2022-09-09T01:47:00;100496.63;;;17.00;90.99
46464;BME280;32161;48.148;-1.554;2022-09-09T01:49:27;100488.34;;;17.05;90.41
46464;BME280;32161;48.148;-1.554;2022-09-09T01:51:57;100495.22;;;17.07;89.95
46464;BME280;32161;48.148;-1.554;2022-09-09T01:54:28;100496.06;;;17.03;90.16
46464;BME280;32161;48.148;-1.554;2022-09-09T01:57:08;100508.97;;;16.97;90.25
46464;BME280;32161;48.148;-1.554;2022-09-09T01:59:48;100503.75;;;17.01;90.21
46464;BME280;32161;48.148;-1.554;2022-09-09T02:02:23;100508.16;;;16.97;90.43
46464;BME280;32161;48.148;-1.554;2022-09-09T02:05:01;100512.56;;;16.93;90.77
46464;BME280;32161;48.148;-1.554;2022-09-09T02:07:38;100507.88;;;16.98;90.50
46464;BME280;32161;48.148;-1.554;2022-09-09T02:10:12;100505.16;;;16.88;91.11
46464;BME280;32161;48.148;-1.554;2022-09-09T02:12:48;100505.72;;;16.85;91.34
46464;BME280;32161;48.148;-1.554;2022-09-09T02:15:26;100499.97;;;16.81;91.25
46464;BME280;32161;48.148;-1.554;2022-09-09T02:17:57;100507.38;;;16.81;91.67
46464;BME280;32161;48.148;-1.554;2022-09-09T02:20:26;100510.94;;;16.81;91.70
46464;BME280;32161;48.148;-1.554;2022-09-09T02:22:56;100520.28;;;16.80;92.04
46464;BME280;32161;48.148;-1.554;2022-09-09T02:25:28;100516.44;;;16.81;92.18
46464;BME280;32161;48.148;-1.554;2022-09-09T02:27:58;100516.44;;;16.81;92.31
46464;BME280;32161;48.148;-1.554;2022-09-09T02:30:29;100524.13;;;16.84;92.21
46464;BME280;32161;48.148;-1.554;2022-09-09T02:33:02;100513.94;;;16.90;92.06
46464;BME280;32161;48.148;-1.554;2022-09-09T02:35:33;100512.28;;;16.89;92.24
46464;BME280;32161;48.148;-1.554;2022-09-09T02:38:08;100510.94;;;16.92;92.27
46464;BME280;32161;48.148;-1.554;2022-09-09T02:40:37;100509.78;;;16.98;92.10
46464;BME280;32161;48.148;-1.554;2022-09-09T02:43:06;100501.59;;;16.93;92.15
46464;BME280;32161;48.148;-1.554;2022-09-09T02:45:40;100497.72;;;16.94;91.96
46464;BME280;32161;48.148;-1.554;2022-09-09T02:48:14;100501.59;;;16.93;92.23
46464;BME280;32161;48.148;-1.554;2022-09-09T02:50:53;100503.50;;;16.92;92.27
46464;BME280;32161;48.148;-1.554;2022-09-09T02:53:28;100501.59;;;16.82;92.33
46464;BME280;32161;48.148;-1.554;2022-09-09T02:56:05;100502.66;;;16.97;91.71
46464;BME280;32161;48.148;-1.554;2022-09-09T02:58:37;100515.06;;;16.84;92.29
46464;BME280;32161;48.148;-1.554;2022-09-09T03:01:05;100509.56;;;16.84;92.42
46464;BME280;32161;48.148;-1.554;2022-09-09T03:03:35;100518.63;;;16.84;92.06
46464;BME280;32161;48.148;-1.554;2022-09-09T03:06:03;100518.59;;;16.90;92.05
46464;BME280;32161;48.148;-1.554;2022-09-09T03:08:31;100519.16;;;16.87;92.03
46464;BME280;32161;48.148;-1.554;2022-09-09T03:10:59;100510.94;;;16.92;91.88
46464;BME280;32161;48.148;-1.554;2022-09-09T03:13:28;100514.50;;;16.82;91.76
46464;BME280;32161;48.148;-1.554;2022-09-09T03:15:57;100519.69;;;16.94;91.77
46464;BME280;32161;48.148;-1.554;2022-09-09T03:18:26;100528.50;;;16.96;91.45
46464;BME280;32161;48.148;-1.554;2022-09-09T03:20:54;100527.34;;;17.02;91.12
46464;BME280;32161;48.148;-1.554;2022-09-09T03:23:21;100522.69;;;17.07;91.20
46464;BME280;32161;48.148;-1.554;2022-09-09T03:25:49;100522.69;;;17.07;91.07
46464;BME280;32161;48.148;-1.554;2022-09-09T03:28:18;100519.91;;;17.13;90.51
46464;BME280;32161;48.148;-1.554;2022-09-09T03:30:46;100530.09;;;17.12;90.50
46464;BME280;32161;48.148;-1.554;2022-09-09T03:33:16;100517.19;;;17.13;90.54
46464;BME280;32161;48.148;-1.554;2022-09-09T03:35:46;100518.00;;;17.13;90.58
46464;BME280;32161;48.148;-1.554;2022-09-09T03:38:14;100526.25;;;17.08;90.10
46464;BME280;32161;48.148;-1.554;2022-09-09T03:40:50;100520.75;;;17.08;90.18
46464;BME280;32161;48.148;-1.554;2022-09-09T03:43:21;100520.78;;;17.03;90.38
46464;BME280;32161;48.148;-1.554;2022-09-09T03:45:49;100533.38;;;17.09;90.05
46464;BME280;32161;48.148;-1.554;2022-09-09T03:48:19;100529.78;;;17.14;89.51
46464;BME280;32161;48.148;-1.554;2022-09-09T03:50:48;100532.28;;;17.10;89.88
46464;BME280;32161;48.148;-1.554;2022-09-09T03:53:18;100534.50;;;17.08;90.06
46464;BME280;32161;48.148;-1.554;2022-09-09T03:55:47;100537.22;;;17.13;89.71
46464;BME280;32161;48.148;-1.554;2022-09-09T03:58:16;100534.78;;;17.01;90.36
46464;BME280;32161;48.148;-1.554;2022-09-09T04:00:54;100529.03;;;17.03;90.14
46464;BME280;32161;48.148;-1.554;2022-09-09T04:03:24;100532.84;;;17.02;90.42
46464;BME280;32161;48.148;-1.554;2022-09-09T04:05:52;100540.28;;;17.01;90.14
46464;BME280;32161;48.148;-1.554;2022-09-09T04:08:20;100542.50;;;16.99;90.65
46464;BME280;32161;48.148;-1.554;2022-09-09T04:10:49;100536.72;;;17.01;90.50
46464;BME280;32161;48.148;-1.554;2022-09-09T04:13:17;100542.72;;;17.08;90.41
46464;BME280;32161;48.148;-1.554;2022-09-09T04:15:51;100536.41;;;17.13;89.91
46464;BME280;32161;48.148;-1.554;2022-09-09T04:18:20;100540.50;;;17.10;90.11
46464;BME280;32161;48.148;-1.554;2022-09-09T04:20:50;100547.66;;;17.16;89.68
46464;BME280;32161;48.148;-1.554;2022-09-09T04:23:19;100546.56;;;17.12;89.88
46464;BME280;32161;48.148;-1.554;2022-09-09T04:25:49;100549.88;;;17.09;89.97
46464;BME280;32161;48.148;-1.554;2022-09-09T04:28:18;100541.66;;;16.94;90.99
46464;BME280;32161;48.148;-1.554;2022-09-09T04:30:46;100548.78;;;17.00;90.37
46464;BME280;32161;48.148;-1.554;2022-09-09T04:33:15;100555.09;;;17.00;90.18
46464;BME280;32161;48.148;-1.554;2022-09-09T04:35:46;100557.59;;;16.97;90.52
46464;BME280;32161;48.148;-1.554;2022-09-09T04:38:16;100560.88;;;16.99;90.66
46464;BME280;32161;48.148;-1.554;2022-09-09T04:40:47;100548.25;;;16.98;90.97
46464;BME280;32161;48.148;-1.554;2022-09-09T04:43:15;100552.09;;;16.97;90.96
46464;BME280;32161;48.148;-1.554;2022-09-09T04:45:43;100546.59;;;16.97;91.03
46464;BME280;32161;48.148;-1.554;2022-09-09T04:48:11;100553.75;;;16.93;90.77
46464;BME280;32161;48.148;-1.554;2022-09-09T04:50:39;100546.06;;;16.90;90.88
46464;BME280;32161;48.148;-1.554;2022-09-09T04:53:07;100555.13;;;16.85;91.08
46464;BME280;32161;48.148;-1.554;2022-09-09T04:55:36;100561.44;;;16.86;91.21
46464;BME280;32161;48.148;-1.554;2022-09-09T04:58:04;100557.06;;;16.84;91.00
46464;BME280;32161;48.148;-1.554;2022-09-09T05:00:32;100563.63;;;16.78;91.40
46464;BME280;32161;48.148;-1.554;2022-09-09T05:03:03;100550.75;;;16.79;91.69
46464;BME280;32161;48.148;-1.554;2022-09-09T05:05:32;100559.56;;;16.76;91.81
46464;BME280;32161;48.148;-1.554;2022-09-09T05:08:05;100555.44;;;16.73;91.71
46464;BME280;32161;48.148;-1.554;2022-09-09T05:10:34;100560.31;;;16.71;91.68
46464;BME280;32161;48.148;-1.554;2022-09-09T05:13:05;100564.75;;;16.77;91.20
46464;BME280;32161;48.148;-1.554;2022-09-09T05:15:33;100560.31;;;16.71;91.53
46464;BME280;32161;48.148;-1.554;2022-09-09T05:18:03;100554.81;;;16.71;91.54
46464;BME280;32161;48.148;-1.554;2022-09-09T05:20:30;100556.22;;;16.69;91.78
46464;BME280;32161;48.148;-1.554;2022-09-09T05:22:58;100569.66;;;16.65;91.85
46464;BME280;32161;48.148;-1.554;2022-09-09T05:25:26;100568.28;;;16.68;91.73
46464;BME280;32161;48.148;-1.554;2022-09-09T05:27:53;100571.88;;;16.68;91.45
46464;BME280;32161;48.148;-1.554;2022-09-09T05:30:22;100568.03;;;16.69;91.40
46464;BME280;32161;48.148;-1.554;2022-09-09T05:32:52;100572.94;;;16.67;91.31
46464;BME280;32161;48.148;-1.554;2022-09-09T05:35:19;100565.25;;;16.64;91.32
46464;BME280;32161;48.148;-1.554;2022-09-09T05:37:47;100572.41;;;16.65;91.42
46464;BME280;32161;48.148;-1.554;2022-09-09T05:40:15;100583.94;;;16.62;91.88
46464;BME280;32161;48.148;-1.554;2022-09-09T05:42:42;100581.19;;;16.57;91.89
46464;BME280;32161;48.148;-1.554;2022-09-09T05:45:10;100588.06;;;16.54;92.17
46464;BME280;32161;48.148;-1.554;2022-09-09T05:47:39;100584.75;;;16.52;92.19
46464;BME280;32161;48.148;-1.554;2022-09-09T05:50:07;100589.41;;;16.52;92.18
46464;BME280;32161;48.148;-1.554;2022-09-09T05:52:35;100585.84;;;16.51;92.34
46464;BME280;32161;48.148;-1.554;2022-09-09T05:55:04;100584.47;;;16.49;92.41
46464;BME280;32161;48.148;-1.554;2022-09-09T05:57:32;100580.09;;;16.48;92.48
46464;BME280;32161;48.148;-1.554;2022-09-09T06:00:00;100585.28;;;16.44;92.63
46464;BME280;32161;48.148;-1.554;2022-09-09T06:02:28;100582.53;;;16.44;92.65
46464;BME280;32161;48.148;-1.554;2022-09-09T06:04:57;100589.13;;;16.48;92.60
46464;BME280;32161;48.148;-1.554;2022-09-09T06:07:25;100580.63;;;16.45;92.90
46464;BME280;32161;48.148;-1.554;2022-09-09T06:09:52;100585.28;;;16.39;93.35
46464;BME280;32161;48.148;-1.554;2022-09-09T06:12:21;100582.00;;;16.37;93.53
46464;BME280;32161;48.148;-1.554;2022-09-09T06:14:48;100585.28;;;16.44;93.34
46464;BME280;32161;48.148;-1.554;2022-09-09T06:17:17;100593.25;;;16.41;93.46
46464;BME280;32161;48.148;-1.554;2022-09-09T06:19:45;100594.91;;;16.42;93.62
46464;BME280;32161;48.148;-1.554;2022-09-09T06:22:14;100591.06;;;16.43;93.38
46464;BME280;32161;48.148;-1.554;2022-09-09T06:24:42;100595.19;;;16.45;93.64
46464;BME280;32161;48.148;-1.554;2022-09-09T06:27:11;100591.88;;;16.48;93.53
46464;BME280;32161;48.148;-1.554;2022-09-09T06:29:39;100603.41;;;16.45;93.47
46464;BME280;32161;48.148;-1.554;2022-09-09T06:32:07;100606.41;;;16.28;94.51
46464;BME280;32161;48.148;-1.554;2022-09-09T06:34:35;100602.03;;;16.38;94.02
46464;BME280;32161;48.148;-1.554;2022-09-09T06:37:03;100610.25;;;16.43;93.75
46464;BME280;32161;48.148;-1.554;2022-09-09T06:39:34;100613.28;;;16.46;93.59
46464;BME280;32161;48.148;-1.554;2022-09-09T06:42:01;100612.47;;;16.46;93.84
46464;BME280;32161;48.148;-1.554;2022-09-09T06:44:30;100616.03;;;16.51;93.49
46464;BME280;32161;48.148;-1.554;2022-09-09T06:46:58;100614.66;;;16.49;93.47
46464;BME280;32161;48.148;-1.554;2022-09-09T06:49:25;100622.88;;;16.49;94.27
46464;BME280;32161;48.148;-1.554;2022-09-09T06:51:53;100622.38;;;16.72;93.68
46464;BME280;32161;48.148;-1.554;2022-09-09T06:54:20;100624.03;;;16.68;93.62
46464;BME280;32161;48.148;-1.554;2022-09-09T06:56:51;100624.03;;;16.78;93.24
46464;BME280;32161;48.148;-1.554;2022-09-09T06:59:18;100633.66;;;16.76;92.83
46464;BME280;32161;48.148;-1.554;2022-09-09T07:01:46;100641.88;;;16.86;92.56
46464;BME280;32161;48.148;-1.554;2022-09-09T07:04:13;100643.53;;;16.97;91.62
46464;BME280;32161;48.148;-1.554;2022-09-09T07:06:44;100644.66;;;16.91;92.14
46464;BME280;32161;48.148;-1.554;2022-09-09T07:09:14;100639.66;;;17.14;90.91
46464;BME280;32161;48.148;-1.554;2022-09-09T07:11:44;100633.91;;;17.00;91.71
46464;BME280;32161;48.148;-1.554;2022-09-09T07:14:14;100636.94;;;16.98;91.95
46464;BME280;32161;48.148;-1.554;2022-09-09T07:16:42;100646.00;;;16.78;93.04
46464;BME280;32161;48.148;-1.554;2022-09-09T07:19:11;100641.63;;;16.93;92.80
46464;BME280;32161;48.148;-1.554;2022-09-09T07:21:40;100643.25;;;17.09;92.64
46464;BME280;32161;48.148;-1.554;2022-09-09T07:24:08;100644.34;;;17.18;92.53
46464;BME280;32161;48.148;-1.554;2022-09-09T07:26:38;100644.88;;;17.20;91.93
46464;BME280;32161;48.148;-1.554;2022-09-09T07:29:06;100653.66;;;17.27;91.20
46464;BME280;32161;48.148;-1.554;2022-09-09T07:31:38;100647.88;;;17.29;91.00
46464;BME280;32161;48.148;-1.554;2022-09-09T07:34:06;100663.53;;;17.28;91.72
46464;BME280;32161;48.148;-1.554;2022-09-09T07:36:35;100660.50;;;17.40;91.04
46464;BME280;32161;48.148;-1.554;2022-09-09T07:39:06;100660.19;;;17.57;90.50
46464;BME280;32161;48.148;-1.554;2022-09-09T07:41:38;100661.28;;;17.61;90.93
46464;BME280;32161;48.148;-1.554;2022-09-09T07:44:08;100659.88;;;17.74;90.83
46464;BME280;32161;48.148;-1.554;2022-09-09T07:46:38;100663.72;;;17.73;89.63
46464;BME280;32161;48.148;-1.554;2022-09-09T07:49:07;100676.13;;;17.65;89.41
46464;BME280;32161;48.148;-1.554;2022-09-09T07:51:38;100674.47;;;17.64;89.48
46464;BME280;32161;48.148;-1.554;2022-09-09T07:54:09;100677.78;;;17.61;89.54
46464;BME280;32161;48.148;-1.554;2022-09-09T07:56:38;100673.94;;;17.62;89.93
46464;BME280;32161;48.148;-1.554;2022-09-09T07:59:06;100676.13;;;17.60;89.27
46464;BME280;32161;48.148;-1.554;2022-09-09T08:01:40;100687.09;;;17.70;88.53
46464;BME280;32161;48.148;-1.554;2022-09-09T08:04:10;100693.47;;;17.40;88.98
46464;BME280;32161;48.148;-1.554;2022-09-09T08:06:45;100688.81;;;17.25;89.42
46464;BME280;32161;48.148;-1.554;2022-09-09T08:09:14;100686.88;;;17.36;90.71
46464;BME280;32161;48.148;-1.554;2022-09-09T08:11:43;100681.94;;;17.43;89.73
46464;BME280;32161;48.148;-1.554;2022-09-09T08:14:11;100695.88;;;17.67;89.21
46464;BME280;32161;48.148;-1.554;2022-09-09T08:16:43;100697.28;;;17.75;88.41
46464;BME280;32161;48.148;-1.554;2022-09-09T08:19:11;100682.63;;;17.95;87.68
46464;BME280;32161;48.148;-1.554;2022-09-09T08:21:40;100686.72;;;18.08;88.62
46464;BME280;32161;48.148;-1.554;2022-09-09T08:24:09;100691.34;;;18.22;86.94
46464;BME280;32161;48.148;-1.554;2022-09-09T08:26:39;100693.06;;;18.52;85.37
46464;BME280;32161;48.148;-1.554;2022-09-09T08:29:10;100699.78;;;18.41;85.37
46464;BME280;32161;48.148;-1.554;2022-09-09T08:31:42;100705.03;;;18.33;84.96
46464;BME280;32161;48.148;-1.554;2022-09-09T08:34:11;100693.75;;;18.34;85.50
46464;BME280;32161;48.148;-1.554;2022-09-09T08:36:40;100699.19;;;18.44;84.18
46464;BME280;32161;48.148;-1.554;2022-09-09T08:39:10;100703.34;;;18.42;84.19
46464;BME280;32161;48.148;-1.554;2022-09-09T08:42:00;100711.59;;;18.37;84.21
46464;BME280;32161;48.148;-1.554;2022-09-09T08:44:48;100708.78;;;18.57;84.31
46464;BME280;32161;48.148;-1.554;2022-09-09T08:47:28;100713.13;;;18.63;84.24
46464;BME280;32161;48.148;-1.554;2022-09-09T08:50:13;100719.13;;;18.75;83.47
46464;BME280;32161;48.148;-1.554;2022-09-09T08:52:55;100710.38;;;18.63;84.27
46464;BME280;32161;48.148;-1.554;2022-09-09T08:55:35;100710.63;;;18.67;83.54
46464;BME280;32161;48.148;-1.554;2022-09-09T08:58:13;100721.78;;;18.91;82.97
46464;BME280;32161;48.148;-1.554;2022-09-09T09:01:05;100719.25;;;18.94;83.29
46464;BME280;32161;48.148;-1.554;2022-09-09T09:03:48;100710.13;;;19.04;83.13
46464;BME280;32161;48.148;-1.554;2022-09-09T09:06:40;100723.31;;;19.07;82.06
46464;BME280;32161;48.148;-1.554;2022-09-09T09:09:19;100730.28;;;18.94;82.96
46464;BME280;32161;48.148;-1.554;2022-09-09T09:11:53;100739.41;;;18.95;82.35
46464;BME280;32161;48.148;-1.554;2022-09-09T09:14:23;100731.59;;;19.02;82.62
46464;BME280;32161;48.148;-1.554;2022-09-09T09:16:56;100723.53;;;19.16;82.80
46464;BME280;32161;48.148;-1.554;2022-09-09T09:19:27;100728.22;;;19.10;82.28
46464;BME280;32161;48.148;-1.554;2022-09-09T09:22:04;100733.16;;;19.18;82.59
46464;BME280;32161;48.148;-1.554;2022-09-09T09:24:41;100731.97;;;19.30;81.66
46464;BME280;32161;48.148;-1.554;2022-09-09T09:27:15;100740.53;;;19.57;80.73
46464;BME280;32161;48.148;-1.554;2022-09-09T09:29:44;100747.28;;;19.41;80.48
46464;BME280;32161;48.148;-1.554;2022-09-09T09:32:18;100734.59;;;19.40;81.07
46464;BME280;32161;48.148;-1.554;2022-09-09T09:34:54;100748.50;;;19.30;79.82
46464;BME280;32161;48.148;-1.554;2022-09-09T09:37:29;100752.06;;;19.30;81.06
46464;BME280;32161;48.148;-1.554;2022-09-09T09:40:09;100744.66;;;19.25;80.68
46464;BME280;32161;48.148;-1.554;2022-09-09T09:42:37;100738.91;;;19.22;81.25
46464;BME280;32161;48.148;-1.554;2022-09-09T09:45:16;100753.03;;;19.44;81.02
46464;BME280;32161;48.148;-1.554;2022-09-09T09:47:59;100749.81;;;19.37;80.98
46464;BME280;32161;48.148;-1.554;2022-09-09T09:50:30;100751.13;;;19.45;82.25
46464;BME280;32161;48.148;-1.554;2022-09-09T09:53:01;100752.56;;;19.37;80.34
46464;BME280;32161;48.148;-1.554;2022-09-09T09:55:32;100763.03;;;19.35;79.39
46464;BME280;32161;48.148;-1.554;2022-09-09T09:58:03;100762.97;;;19.45;80.31
46464;BME280;32161;48.148;-1.554;2022-09-09T10:00:31;100762.41;;;19.43;78.83
46464;BME280;32161;48.148;-1.554;2022-09-09T10:03:01;100765.84;;;19.59;79.44
46464;BME280;32161;48.148;-1.554;2022-09-09T10:05:31;100769.44;;;19.65;82.86
46464;BME280;32161;48.148;-1.554;2022-09-09T10:08:05;100770.75;;;19.96;80.55
46464;BME280;32161;48.148;-1.554;2022-09-09T10:10:50;100763.84;;;19.99;78.05
46464;BME280;32161;48.148;-1.554;2022-09-09T10:13:26;100764.28;;;20.06;77.80
46464;BME280;32161;48.148;-1.554;2022-09-09T10:16:08;100774.09;;;20.17;77.61
46464;BME280;32161;48.148;-1.554;2022-09-09T10:18:54;100780.09;;;20.24;77.42
46464;BME280;32161;48.148;-1.554;2022-09-09T10:25:24;100783.72;;;20.49;78.98
46464;BME280;32161;48.148;-1.554;2022-09-09T10:28:22;100776.88;;;20.84;75.81
46464;BME280;32161;48.148;-1.554;2022-09-09T10:31:07;100784.84;;;20.86;75.63
46464;BME280;32161;48.148;-1.554;2022-09-09T10:33:47;100780.16;;;21.05;75.22
46464;BME280;32161;48.148;-1.554;2022-09-09T10:36:20;100787.41;;;21.01;73.39
46464;BME280;32161;48.148;-1.554;2022-09-09T10:38:54;100775.53;;;20.82;73.88
46464;BME280;32161;48.148;-1.554;2022-09-09T10:41:42;100785.06;;;20.70;75.01
46464;BME280;32161;48.148;-1.554;2022-09-09T10:44:30;100781.19;;;20.53;74.94
46464;BME280;32161;48.148;-1.554;2022-09-09T10:47:23;100779.31;;;20.67;74.46
46464;BME280;32161;48.148;-1.554;2022-09-09T10:50:14;100785.81;;;20.57;74.33
46464;BME280;32161;48.148;-1.554;2022-09-09T10:52:52;100785.59;;;20.72;74.92
46464;BME280;32161;48.148;-1.554;2022-09-09T10:55:27;100789.66;;;20.56;74.15
46464;BME280;32161;48.148;-1.554;2022-09-09T10:57:58;100791.19;;;20.67;72.63
46464;BME280;32161;48.148;-1.554;2022-09-09T11:00:37;100795.66;;;20.63;73.67
46464;BME280;32161;48.148;-1.554;2022-09-09T11:03:06;100790.75;;;20.60;74.99
46464;BME280;32161;48.148;-1.554;2022-09-09T11:05:41;100797.03;;;20.85;75.58
46464;BME280;32161;48.148;-1.554;2022-09-09T11:08:13;100797.41;;;20.78;75.90
46464;BME280;32161;48.148;-1.554;2022-09-09T11:10:48;100791.88;;;20.78;76.69
46464;BME280;32161;48.148;-1.554;2022-09-09T11:13:26;100806.06;;;21.09;74.89
46464;BME280;32161;48.148;-1.554;2022-09-09T11:16:03;100794.09;;;21.14;75.14
46464;BME280;32161;48.148;-1.554;2022-09-09T11:18:37;100795.00;;;21.09;74.79
46464;BME280;32161;48.148;-1.554;2022-09-09T11:21:21;100801.38;;;20.91;76.08
46464;BME280;32161;48.148;-1.554;2022-09-09T11:23:55;100799.63;;;21.14;76.92
46464;BME280;32161;48.148;-1.554;2022-09-09T11:26:31;100785.81;;;21.33;75.89
46464;BME280;32161;48.148;-1.554;2022-09-09T11:29:40;100801.22;;;21.39;75.36
46464;BME280;32161;48.148;-1.554;2022-09-09T11:32:29;100790.00;;;21.49;74.21
46464;BME280;32161;48.148;-1.554;2022-09-09T11:35:17;100795.72;;;21.85;74.08
46464;BME280;32161;48.148;-1.554;2022-09-09T11:38:25;100804.19;;;21.75;72.58
46464;BME280;32161;48.148;-1.554;2022-09-09T11:40:59;100799.47;;;21.62;71.42
46464;BME280;32161;48.148;-1.554;2022-09-09T11:43:32;100807.44;;;21.63;70.77
46464;BME280;32161;48.148;-1.554;2022-09-09T11:46:02;100795.38;;;21.40;71.64
46464;BME280;32161;48.148;-1.554;2022-09-09T11:48:34;100805.03;;;21.43;72.06
46464;BME280;32161;48.148;-1.554;2022-09-09T11:51:06;100803.91;;;21.44;72.88
46464;BME280;32161;48.148;-1.554;2022-09-09T11:53:36;100798.41;;;21.58;73.10
46464;BME280;32161;48.148;-1.554;2022-09-09T11:56:25;100790.25;;;21.66;71.04
46464;BME280;32161;48.148;-1.554;2022-09-09T11:58:59;100796.53;;;21.72;71.00
46464;BME280;32161;48.148;-1.554;2022-09-09T12:01:35;100802.06;;;21.86;72.73
46464;BME280;32161;48.148;-1.554;2022-09-09T12:04:32;100794.50;;;21.91;72.37
46464;BME280;32161;48.148;-1.554;2022-09-09T12:07:20;100790.81;;;21.96;70.92
46464;BME280;32161;48.148;-1.554;2022-09-09T12:09:52;100794.84;;;22.17;70.24
46464;BME280;32161;48.148;-1.554;2022-09-09T12:12:28;100796.72;;;22.22;68.86
46464;BME280;32161;48.148;-1.554;2022-09-09T12:15:02;100787.59;;;22.22;69.15
46464;BME280;32161;48.148;-1.554;2022-09-09T12:17:36;100774.78;;;22.26;69.92
46464;BME280;32161;48.148;-1.554;2022-09-09T12:20:15;100785.84;;;22.26;69.30
46464;BME280;32161;48.148;-1.554;2022-09-09T12:23:31;100794.44;;;22.10;65.70
46464;BME280;32161;48.148;-1.554;2022-09-09T12:29:08;100800.81;;;22.25;66.40
46464;BME280;32161;48.148;-1.554;2022-09-09T12:31:48;100792.50;;;22.25;68.65
46464;BME280;32161;48.148;-1.554;2022-09-09T12:34:33;100793.13;;;22.22;68.70
46464;BME280;32161;48.148;-1.554;2022-09-09T12:37:13;100802.91;;;22.00;70.38
46464;BME280;32161;48.148;-1.554;2022-09-09T12:39:47;100797.13;;;22.15;68.68
46464;BME280;32161;48.148;-1.554;2022-09-09T12:42:19;100797.66;;;22.45;69.52
46464;BME280;32161;48.148;-1.554;2022-09-09T12:44:55;100798.13;;;22.47;70.26
46464;BME280;32161;48.148;-1.554;2022-09-09T12:47:32;100807.19;;;22.53;68.91
46464;BME280;32161;48.148;-1.554;2022-09-09T12:50:05;100799.66;;;22.67;71.11
46464;BME280;32161;48.148;-1.554;2022-09-09T12:52:43;100808.91;;;22.76;68.95
46464;BME280;32161;48.148;-1.554;2022-09-09T12:55:18;100802.94;;;22.55;68.79
46464;BME280;32161;48.148;-1.554;2022-09-09T12:57:46;100797.59;;;22.73;69.22
46464;BME280;32161;48.148;-1.554;2022-09-09T13:00:20;100795.69;;;23.09;68.75
46464;BME280;32161;48.148;-1.554;2022-09-09T13:02:52;100793.81;;;23.19;67.27
46464;BME280;32161;48.148;-1.554;2022-09-09T13:05:24;100790.88;;;23.37;68.25
46464;BME280;32161;48.148;-1.554;2022-09-09T13:08:00;100793.13;;;23.58;67.56
46464;BME280;32161;48.148;-1.554;2022-09-09T13:10:33;100786.25;;;23.78;66.93
46464;BME280;32161;48.148;-1.554;2022-09-09T13:13:01;100791.31;;;23.76;66.23
46464;BME280;32161;48.148;-1.554;2022-09-09T13:15:30;100791.41;;;23.71;64.92
46464;BME280;32161;48.148;-1.554;2022-09-09T13:18:06;100797.47;;;23.50;64.26
46464;BME280;32161;48.148;-1.554;2022-09-09T13:20:37;100788.59;;;23.39;64.80
46464;BME280;32161;48.148;-1.554;2022-09-09T13:23:09;100789.78;;;23.25;66.06